sensor_id;sensor_type;location;lat;lon;timestamp;pressure;altitude;pressure_sealevel;temperature
68743;BMP180;55725;42.758;26.702;2022-07-17T00:01:20;99380.00;;;19.30
68743;BMP180;55725;42.758;26.702;2022-07-17T00:03:00;99385.00;;;19.20
68743;BMP180;55725;42.758;26.702;2022-07-17T00:04:41;99395.00;;;19.10
68743;BMP180;55725;42.758;26.702;2022-07-17T00:06:21;99404.00;;;19.60
68743;BMP180;55725;42.758;26.702;2022-07-17T00:08:01;99396.00;;;19.20
68743;BMP180;55725;42.758;26.702;2022-07-17T00:09:42;99397.00;;;19.20
68743;BMP180;55725;42.758;26.702;2022-07-17T00:11:22;99410.00;;;19.30
68743;BMP180;55725;42.758;26.702;2022-07-17T00:13:03;99403.00;;;19.20
68743;BMP180;55725;42.758;26.702;2022-07-17T00:14:43;99405.00;;;19.10
68743;BMP180;55725;42.758;26.702;2022-07-17T00:16:24;99410.00;;;19.00
68743;BMP180;55725;42.758;26.702;2022-07-17T00:18:05;99414.00;;;19.00
68743;BMP180;55725;42.758;26.702;2022-07-17T00:19:46;99404.00;;;19.30
68743;BMP180;55725;42.758;26.702;2022-07-17T00:21:27;99418.00;;;19.00
68743;BMP180;55725;42.758;26.702;2022-07-17T00:23:07;99405.00;;;18.80
68743;BMP180;55725;42.758;26.702;2022-07-17T00:24:47;99402.00;;;18.70
68743;BMP180;55725;42.758;26.702;2022-07-17T00:26:28;99407.00;;;18.80
68743;BMP180;55725;42.758;26.702;2022-07-17T00:28:08;99410.00;;;19.40
68743;BMP180;55725;42.758;26.702;2022-07-17T00:29:48;99406.00;;;19.20
68743;BMP180;55725;42.758;26.702;2022-07-17T00:31:28;99403.00;;;18.90
68743;BMP180;55725;42.758;26.702;2022-07-17T00:33:09;99400.00;;;19.00
68743;BMP180;55725;42.758;26.702;2022-07-17T00:34:50;99398.00;;;19.20
68743;BMP180;55725;42.758;26.702;2022-07-17T00:36:30;99392.00;;;19.30
68743;BMP180;55725;42.758;26.702;2022-07-17T00:38:10;99390.00;;;19.00
68743;BMP180;55725;42.758;26.702;2022-07-17T00:39:51;99387.00;;;19.10
68743;BMP180;55725;42.758;26.702;2022-07-17T00:41:31;99388.00;;;19.10
68743;BMP180;55725;42.758;26.702;2022-07-17T00:43:11;99390.00;;;18.80
68743;BMP180;55725;42.758;26.702;2022-07-17T00:44:52;99388.00;;;18.80
68743;BMP180;55725;42.758;26.702;2022-07-17T00:46:32;99387.00;;;19.10
68743;BMP180;55725;42.758;26.702;2022-07-17T00:48:12;99387.00;;;18.90
68743;BMP180;55725;42.758;26.702;2022-07-17T00:49:53;99383.00;;;19.10
68743;BMP180;55725;42.758;26.702;2022-07-17T00:51:33;99381.00;;;19.10
68743;BMP180;55725;42.758;26.702;2022-07-17T00:53:13;99378.00;;;19.30
68743;BMP180;55725;42.758;26.702;2022-07-17T00:54:54;99386.00;;;19.00
68743;BMP180;55725;42.758;26.702;2022-07-17T00:56:36;99380.00;;;18.90
68743;BMP180;55725;42.758;26.702;2022-07-17T00:58:21;99385.00;;;18.60
68743;BMP180;55725;42.758;26.702;2022-07-17T01:00:02;99396.00;;;19.10
68743;BMP180;55725;42.758;26.702;2022-07-17T01:01:47;99394.00;;;19.50
68743;BMP180;55725;42.758;26.702;2022-07-17T01:03:27;99393.00;;;19.20
68743;BMP180;55725;42.758;26.702;2022-07-17T01:05:07;99394.00;;;18.60
68743;BMP180;55725;42.758;26.702;2022-07-17T01:06:47;99386.00;;;19.00
68743;BMP180;55725;42.758;26.702;2022-07-17T01:08:28;99390.00;;;18.90
68743;BMP180;55725;42.758;26.702;2022-07-17T01:10:09;99389.00;;;18.70
68743;BMP180;55725;42.758;26.702;2022-07-17T01:11:49;99380.00;;;18.90
68743;BMP180;55725;42.758;26.702;2022-07-17T01:13:30;99380.00;;;18.80
68743;BMP180;55725;42.758;26.702;2022-07-17T01:15:11;99384.00;;;18.90
68743;BMP180;55725;42.758;26.702;2022-07-17T01:16:52;99374.00;;;19.10
68743;BMP180;55725;42.758;26.702;2022-07-17T01:18:32;99374.00;;;19.00
68743;BMP180;55725;42.758;26.702;2022-07-17T01:20:12;99374.00;;;18.50
68743;BMP180;55725;42.758;26.702;2022-07-17T01:21:53;99373.00;;;18.60
68743;BMP180;55725;42.758;26.702;2022-07-17T01:23:33;99386.00;;;18.60
68743;BMP180;55725;42.758;26.702;2022-07-17T01:25:14;99385.00;;;18.40
68743;BMP180;55725;42.758;26.702;2022-07-17T01:26:54;99383.00;;;18.00
68743;BMP180;55725;42.758;26.702;2022-07-17T01:28:35;99383.00;;;18.30
68743;BMP180;55725;42.758;26.702;2022-07-17T01:30:15;99381.00;;;19.10
68743;BMP180;55725;42.758;26.702;2022-07-17T01:31:55;99381.00;;;18.80
68743;BMP180;55725;42.758;26.702;2022-07-17T01:33:36;99377.00;;;19.00
68743;BMP180;55725;42.758;26.702;2022-07-17T01:35:17;99373.00;;;18.60
68743;BMP180;55725;42.758;26.702;2022-07-17T01:36:57;99375.00;;;19.00
68743;BMP180;55725;42.758;26.702;2022-07-17T01:38:38;99375.00;;;19.20
68743;BMP180;55725;42.758;26.702;2022-07-17T01:40:18;99372.00;;;19.20
68743;BMP180;55725;42.758;26.702;2022-07-17T01:41:59;99379.00;;;19.10
68743;BMP180;55725;42.758;26.702;2022-07-17T01:43:39;99380.00;;;19.20
68743;BMP180;55725;42.758;26.702;2022-07-17T01:45:19;99379.00;;;19.20
68743;BMP180;55725;42.758;26.702;2022-07-17T01:47:00;99385.00;;;19.00
68743;BMP180;55725;42.758;26.702;2022-07-17T01:48:40;99388.00;;;18.70
68743;BMP180;55725;42.758;26.702;2022-07-17T01:50:20;99391.00;;;19.20
68743;BMP180;55725;42.758;26.702;2022-07-17T01:52:01;99386.00;;;19.10
68743;BMP180;55725;42.758;26.702;2022-07-17T01:53:41;99389.00;;;19.00
68743;BMP180;55725;42.758;26.702;2022-07-17T01:55:22;99374.00;;;19.20
68743;BMP180;55725;42.758;26.702;2022-07-17T01:57:02;99388.00;;;19.50
68743;BMP180;55725;42.758;26.702;2022-07-17T01:58:42;99382.00;;;20.50
68743;BMP180;55725;42.758;26.702;2022-07-17T02:00:23;99384.00;;;21.00
68743;BMP180;55725;42.758;26.702;2022-07-17T02:02:05;99384.00;;;21.10
68743;BMP180;55725;42.758;26.702;2022-07-17T02:03:46;99384.00;;;21.30
68743;BMP180;55725;42.758;26.702;2022-07-17T02:05:26;99373.00;;;21.20
68743;BMP180;55725;42.758;26.702;2022-07-17T02:07:07;99379.00;;;21.20
68743;BMP180;55725;42.758;26.702;2022-07-17T02:08:48;99381.00;;;21.30
68743;BMP180;55725;42.758;26.702;2022-07-17T02:10:30;99387.00;;;21.20
68743;BMP180;55725;42.758;26.702;2022-07-17T02:12:11;99381.00;;;21.20
68743;BMP180;55725;42.758;26.702;2022-07-17T02:13:51;99383.00;;;21.20
68743;BMP180;55725;42.758;26.702;2022-07-17T02:15:31;99388.00;;;21.20
68743;BMP180;55725;42.758;26.702;2022-07-17T02:17:12;99383.00;;;21.20
68743;BMP180;55725;42.758;26.702;2022-07-17T02:18:52;99378.00;;;21.20
68743;BMP180;55725;42.758;26.702;2022-07-17T02:20:32;99387.00;;;21.20
68743;BMP180;55725;42.758;26.702;2022-07-17T02:22:13;99398.00;;;21.10
68743;BMP180;55725;42.758;26.702;2022-07-17T02:23:53;99392.00;;;21.20
68743;BMP180;55725;42.758;26.702;2022-07-17T02:25:33;99393.00;;;21.00
68743;BMP180;55725;42.758;26.702;2022-07-17T02:27:13;99401.00;;;20.60
68743;BMP180;55725;42.758;26.702;2022-07-17T02:28:54;99399.00;;;20.80
68743;BMP180;55725;42.758;26.702;2022-07-17T02:30:34;99403.00;;;21.00
68743;BMP180;55725;42.758;26.702;2022-07-17T02:32:15;99406.00;;;21.00
68743;BMP180;55725;42.758;26.702;2022-07-17T02:33:55;99407.00;;;21.10
68743;BMP180;55725;42.758;26.702;2022-07-17T02:35:36;99409.00;;;21.10
68743;BMP180;55725;42.758;26.702;2022-07-17T02:37:16;99407.00;;;21.10
68743;BMP180;55725;42.758;26.702;2022-07-17T02:38:56;99405.00;;;21.20
68743;BMP180;55725;42.758;26.702;2022-07-17T02:40:37;99408.00;;;21.20
68743;BMP180;55725;42.758;26.702;2022-07-17T02:42:18;99406.00;;;21.20
68743;BMP180;55725;42.758;26.702;2022-07-17T02:43:58;99406.00;;;21.10
68743;BMP180;55725;42.758;26.702;2022-07-17T02:45:39;99414.00;;;21.00
68743;BMP180;55725;42.758;26.702;2022-07-17T02:47:29;99409.00;;;21.10
68743;BMP180;55725;42.758;26.702;2022-07-17T02:49:09;99410.00;;;21.00
68743;BMP180;55725;42.758;26.702;2022-07-17T02:50:50;99411.00;;;21.00
68743;BMP180;55725;42.758;26.702;2022-07-17T02:52:30;99411.00;;;20.90
68743;BMP180;55725;42.758;26.702;2022-07-17T02:54:11;99416.00;;;21.00
68743;BMP180;55725;42.758;26.702;2022-07-17T02:55:51;99415.00;;;21.00
68743;BMP180;55725;42.758;26.702;2022-07-17T02:57:31;99407.00;;;21.00
68743;BMP180;55725;42.758;26.702;2022-07-17T02:59:12;99409.00;;;20.90
68743;BMP180;55725;42.758;26.702;2022-07-17T03:00:52;99411.00;;;21.00
68743;BMP180;55725;42.758;26.702;2022-07-17T03:02:32;99411.00;;;21.10
68743;BMP180;55725;42.758;26.702;2022-07-17T03:04:13;99411.00;;;21.00
68743;BMP180;55725;42.758;26.702;2022-07-17T03:05:53;99413.00;;;21.10
68743;BMP180;55725;42.758;26.702;2022-07-17T03:07:33;99411.00;;;21.20
68743;BMP180;55725;42.758;26.702;2022-07-17T03:09:14;99411.00;;;21.30
68743;BMP180;55725;42.758;26.702;2022-07-17T03:10:54;99409.00;;;21.40
68743;BMP180;55725;42.758;26.702;2022-07-17T03:12:34;99408.00;;;21.50
68743;BMP180;55725;42.758;26.702;2022-07-17T03:14:14;99403.00;;;21.60
68743;BMP180;55725;42.758;26.702;2022-07-17T03:15:55;99408.00;;;21.60
68743;BMP180;55725;42.758;26.702;2022-07-17T03:17:35;99408.00;;;21.60
68743;BMP180;55725;42.758;26.702;2022-07-17T03:19:15;99402.00;;;21.30
68743;BMP180;55725;42.758;26.702;2022-07-17T03:20:56;99403.00;;;21.00
68743;BMP180;55725;42.758;26.702;2022-07-17T03:22:36;99406.00;;;21.00
68743;BMP180;55725;42.758;26.702;2022-07-17T03:24:17;99399.00;;;21.10
68743;BMP180;55725;42.758;26.702;2022-07-17T03:25:57;99405.00;;;21.00
68743;BMP180;55725;42.758;26.702;2022-07-17T03:27:37;99410.00;;;21.00
68743;BMP180;55725;42.758;26.702;2022-07-17T03:29:18;99397.00;;;21.10
68743;BMP180;55725;42.758;26.702;2022-07-17T03:30:58;99404.00;;;21.00
68743;BMP180;55725;42.758;26.702;2022-07-17T03:32:39;99408.00;;;20.60
68743;BMP180;55725;42.758;26.702;2022-07-17T03:34:19;99403.00;;;20.50
68743;BMP180;55725;42.758;26.702;2022-07-17T03:35:59;99396.00;;;20.90
68743;BMP180;55725;42.758;26.702;2022-07-17T03:37:40;99405.00;;;21.00
68743;BMP180;55725;42.758;26.702;2022-07-17T03:39:20;99402.00;;;20.80
68743;BMP180;55725;42.758;26.702;2022-07-17T03:41:00;99397.00;;;20.70
68743;BMP180;55725;42.758;26.702;2022-07-17T03:42:41;99400.00;;;20.80
68743;BMP180;55725;42.758;26.702;2022-07-17T03:44:21;99397.00;;;21.00
68743;BMP180;55725;42.758;26.702;2022-07-17T03:46:01;99407.00;;;20.60
68743;BMP180;55725;42.758;26.702;2022-07-17T03:47:42;99406.00;;;21.00
68743;BMP180;55725;42.758;26.702;2022-07-17T03:49:22;99403.00;;;21.20
68743;BMP180;55725;42.758;26.702;2022-07-17T03:51:03;99406.00;;;20.90
68743;BMP180;55725;42.758;26.702;2022-07-17T03:52:43;99400.00;;;21.30
68743;BMP180;55725;42.758;26.702;2022-07-17T03:54:23;99397.00;;;21.20
68743;BMP180;55725;42.758;26.702;2022-07-17T03:56:04;99393.00;;;21.40
68743;BMP180;55725;42.758;26.702;2022-07-17T03:57:44;99407.00;;;21.20
68743;BMP180;55725;42.758;26.702;2022-07-17T03:59:25;99398.00;;;21.50
68743;BMP180;55725;42.758;26.702;2022-07-17T04:01:05;99396.00;;;21.90
68743;BMP180;55725;42.758;26.702;2022-07-17T04:02:45;99396.00;;;21.80
68743;BMP180;55725;42.758;26.702;2022-07-17T04:04:26;99397.00;;;21.50
68743;BMP180;55725;42.758;26.702;2022-07-17T04:06:06;99406.00;;;21.50
68743;BMP180;55725;42.758;26.702;2022-07-17T04:07:46;99402.00;;;21.90
68743;BMP180;55725;42.758;26.702;2022-07-17T04:09:27;99403.00;;;21.90
68743;BMP180;55725;42.758;26.702;2022-07-17T04:11:07;99407.00;;;21.90
68743;BMP180;55725;42.758;26.702;2022-07-17T04:12:47;99410.00;;;22.00
68743;BMP180;55725;42.758;26.702;2022-07-17T04:14:28;99413.00;;;21.90
68743;BMP180;55725;42.758;26.702;2022-07-17T04:16:08;99412.00;;;22.00
68743;BMP180;55725;42.758;26.702;2022-07-17T04:17:49;99415.00;;;22.00
68743;BMP180;55725;42.758;26.702;2022-07-17T04:19:29;99415.00;;;22.10
68743;BMP180;55725;42.758;26.702;2022-07-17T04:21:10;99411.00;;;22.30
68743;BMP180;55725;42.758;26.702;2022-07-17T04:22:50;99430.00;;;22.20
68743;BMP180;55725;42.758;26.702;2022-07-17T04:24:31;99422.00;;;22.40
68743;BMP180;55725;42.758;26.702;2022-07-17T04:26:11;99426.00;;;22.40
68743;BMP180;55725;42.758;26.702;2022-07-17T04:27:51;99416.00;;;22.60
68743;BMP180;55725;42.758;26.702;2022-07-17T04:29:32;99424.00;;;22.70
68743;BMP180;55725;42.758;26.702;2022-07-17T04:31:12;99419.00;;;22.60
68743;BMP180;55725;42.758;26.702;2022-07-17T04:32:52;99428.00;;;22.60
68743;BMP180;55725;42.758;26.702;2022-07-17T04:34:33;99418.00;;;22.60
68743;BMP180;55725;42.758;26.702;2022-07-17T04:36:14;99422.00;;;22.60
68743;BMP180;55725;42.758;26.702;2022-07-17T04:37:54;99419.00;;;22.90
68743;BMP180;55725;42.758;26.702;2022-07-17T04:39:34;99426.00;;;22.80
68743;BMP180;55725;42.758;26.702;2022-07-17T04:41:14;99424.00;;;22.90
68743;BMP180;55725;42.758;26.702;2022-07-17T04:42:55;99427.00;;;23.20
68743;BMP180;55725;42.758;26.702;2022-07-17T04:44:35;99428.00;;;23.20
68743;BMP180;55725;42.758;26.702;2022-07-17T04:46:16;99427.00;;;23.30
68743;BMP180;55725;42.758;26.702;2022-07-17T04:47:57;99422.00;;;23.60
68743;BMP180;55725;42.758;26.702;2022-07-17T04:49:37;99426.00;;;23.60
68743;BMP180;55725;42.758;26.702;2022-07-17T04:51:17;99432.00;;;23.40
68743;BMP180;55725;42.758;26.702;2022-07-17T04:52:58;99435.00;;;23.80
68743;BMP180;55725;42.758;26.702;2022-07-17T04:54:38;99438.00;;;24.00
68743;BMP180;55725;42.758;26.702;2022-07-17T04:56:18;99431.00;;;23.90
68743;BMP180;55725;42.758;26.702;2022-07-17T04:57:59;99426.00;;;23.90
68743;BMP180;55725;42.758;26.702;2022-07-17T04:59:39;99431.00;;;23.90
68743;BMP180;55725;42.758;26.702;2022-07-17T05:01:19;99436.00;;;24.10
68743;BMP180;55725;42.758;26.702;2022-07-17T05:03:00;99452.00;;;24.10
68743;BMP180;55725;42.758;26.702;2022-07-17T05:04:40;99440.00;;;24.20
68743;BMP180;55725;42.758;26.702;2022-07-17T05:06:20;99443.00;;;24.50
68743;BMP180;55725;42.758;26.702;2022-07-17T05:08:01;99442.00;;;24.50
68743;BMP180;55725;42.758;26.702;2022-07-17T05:09:41;99436.00;;;24.40
68743;BMP180;55725;42.758;26.702;2022-07-17T05:11:21;99443.00;;;24.60
68743;BMP180;55725;42.758;26.702;2022-07-17T05:13:02;99448.00;;;24.70
68743;BMP180;55725;42.758;26.702;2022-07-17T05:14:42;99440.00;;;24.60
68743;BMP180;55725;42.758;26.702;2022-07-17T05:16:22;99451.00;;;24.80
68743;BMP180;55725;42.758;26.702;2022-07-17T05:18:03;99440.00;;;24.90
68743;BMP180;55725;42.758;26.702;2022-07-17T05:19:43;99452.00;;;25.20
68743;BMP180;55725;42.758;26.702;2022-07-17T05:21:23;99453.00;;;25.10
68743;BMP180;55725;42.758;26.702;2022-07-17T05:23:04;99444.00;;;25.00
68743;BMP180;55725;42.758;26.702;2022-07-17T05:24:44;99453.00;;;25.10
68743;BMP180;55725;42.758;26.702;2022-07-17T05:26:25;99456.00;;;25.20
68743;BMP180;55725;42.758;26.702;2022-07-17T05:28:05;99457.00;;;25.20
68743;BMP180;55725;42.758;26.702;2022-07-17T05:29:46;99451.00;;;25.30
68743;BMP180;55725;42.758;26.702;2022-07-17T05:31:26;99454.00;;;25.20
68743;BMP180;55725;42.758;26.702;2022-07-17T05:33:06;99456.00;;;25.50
68743;BMP180;55725;42.758;26.702;2022-07-17T05:34:47;99449.00;;;25.40
68743;BMP180;55725;42.758;26.702;2022-07-17T05:36:27;99446.00;;;25.50
68743;BMP180;55725;42.758;26.702;2022-07-17T05:38:09;99454.00;;;25.80
68743;BMP180;55725;42.758;26.702;2022-07-17T05:39:49;99451.00;;;26.00
68743;BMP180;55725;42.758;26.702;2022-07-17T05:41:29;99453.00;;;26.10
68743;BMP180;55725;42.758;26.702;2022-07-17T05:43:10;99468.00;;;26.00
68743;BMP180;55725;42.758;26.702;2022-07-17T05:44:50;99468.00;;;25.60
68743;BMP180;55725;42.758;26.702;2022-07-17T05:46:31;99481.00;;;25.70
68743;BMP180;55725;42.758;26.702;2022-07-17T05:48:11;99457.00;;;26.00
68743;BMP180;55725;42.758;26.702;2022-07-17T05:49:51;99467.00;;;26.20
68743;BMP180;55725;42.758;26.702;2022-07-17T05:51:31;99454.00;;;25.90
68743;BMP180;55725;42.758;26.702;2022-07-17T05:53:12;99458.00;;;26.20
68743;BMP180;55725;42.758;26.702;2022-07-17T05:54:52;99465.00;;;26.30
68743;BMP180;55725;42.758;26.702;2022-07-17T05:56:32;99468.00;;;26.10
68743;BMP180;55725;42.758;26.702;2022-07-17T05:58:13;99468.00;;;26.20
68743;BMP180;55725;42.758;26.702;2022-07-17T05:59:53;99465.00;;;26.20
68743;BMP180;55725;42.758;26.702;2022-07-17T06:01:33;99475.00;;;26.20
68743;BMP180;55725;42.758;26.702;2022-07-17T06:03:14;99469.00;;;26.30
68743;BMP180;55725;42.758;26.702;2022-07-17T06:04:54;99468.00;;;26.50
68743;BMP180;55725;42.758;26.702;2022-07-17T06:06:35;99467.00;;;26.40
68743;BMP180;55725;42.758;26.702;2022-07-17T06:08:15;99467.00;;;26.60
68743;BMP180;55725;42.758;26.702;2022-07-17T06:09:55;99465.00;;;27.00
68743;BMP180;55725;42.758;26.702;2022-07-17T06:11:36;99469.00;;;26.70
68743;BMP180;55725;42.758;26.702;2022-07-17T06:13:16;99466.00;;;26.70
68743;BMP180;55725;42.758;26.702;2022-07-17T06:14:56;99455.00;;;26.40
68743;BMP180;55725;42.758;26.702;2022-07-17T06:16:37;99449.00;;;26.30
68743;BMP180;55725;42.758;26.702;2022-07-17T06:18:17;99458.00;;;26.50
68743;BMP180;55725;42.758;26.702;2022-07-17T06:19:58;99449.00;;;26.70
68743;BMP180;55725;42.758;26.702;2022-07-17T06:21:38;99450.00;;;26.70
68743;BMP180;55725;42.758;26.702;2022-07-17T06:23:18;99462.00;;;26.70
68743;BMP180;55725;42.758;26.702;2022-07-17T06:24:59;99451.00;;;26.90
68743;BMP180;55725;42.758;26.702;2022-07-17T06:26:39;99453.00;;;26.90
68743;BMP180;55725;42.758;26.702;2022-07-17T06:28:19;99453.00;;;27.00
68743;BMP180;55725;42.758;26.702;2022-07-17T06:29:59;99454.00;;;27.10
68743;BMP180;55725;42.758;26.702;2022-07-17T06:31:40;99449.00;;;26.90
68743;BMP180;55725;42.758;26.702;2022-07-17T06:33:21;99461.00;;;27.20
68743;BMP180;55725;42.758;26.702;2022-07-17T06:35:01;99456.00;;;27.00
68743;BMP180;55725;42.758;26.702;2022-07-17T06:36:41;99457.00;;;27.10
68743;BMP180;55725;42.758;26.702;2022-07-17T06:38:22;99456.00;;;27.20
68743;BMP180;55725;42.758;26.702;2022-07-17T06:40:02;99464.00;;;27.30
68743;BMP180;55725;42.758;26.702;2022-07-17T06:41:43;99468.00;;;27.30
68743;BMP180;55725;42.758;26.702;2022-07-17T06:43:23;99451.00;;;27.30
68743;BMP180;55725;42.758;26.702;2022-07-17T06:45:04;99461.00;;;27.70
68743;BMP180;55725;42.758;26.702;2022-07-17T06:46:44;99466.00;;;27.50
68743;BMP180;55725;42.758;26.702;2022-07-17T06:48:24;99460.00;;;27.30
68743;BMP180;55725;42.758;26.702;2022-07-17T06:50:05;99470.00;;;27.50
68743;BMP180;55725;42.758;26.702;2022-07-17T06:51:45;99462.00;;;28.00
68743;BMP180;55725;42.758;26.702;2022-07-17T06:53:26;99475.00;;;27.80
68743;BMP180;55725;42.758;26.702;2022-07-17T06:55:06;99463.00;;;27.80
68743;BMP180;55725;42.758;26.702;2022-07-17T06:56:46;99477.00;;;27.80
68743;BMP180;55725;42.758;26.702;2022-07-17T06:58:27;99479.00;;;27.80
68743;BMP180;55725;42.758;26.702;2022-07-17T07:00:07;99468.00;;;27.90
68743;BMP180;55725;42.758;26.702;2022-07-17T07:01:49;99471.00;;;28.00
68743;BMP180;55725;42.758;26.702;2022-07-17T07:03:29;99468.00;;;28.10
68743;BMP180;55725;42.758;26.702;2022-07-17T07:05:09;99463.00;;;28.40
68743;BMP180;55725;42.758;26.702;2022-07-17T07:06:50;99471.00;;;28.30
68743;BMP180;55725;42.758;26.702;2022-07-17T07:08:30;99468.00;;;28.30
68743;BMP180;55725;42.758;26.702;2022-07-17T07:10:10;99471.00;;;28.50
68743;BMP180;55725;42.758;26.702;2022-07-17T07:11:51;99468.00;;;28.60
68743;BMP180;55725;42.758;26.702;2022-07-17T07:13:31;99462.00;;;28.80
68743;BMP180;55725;42.758;26.702;2022-07-17T07:15:12;99459.00;;;28.60
68743;BMP180;55725;42.758;26.702;2022-07-17T07:16:54;99466.00;;;29.00
68743;BMP180;55725;42.758;26.702;2022-07-17T07:18:34;99460.00;;;28.40
68743;BMP180;55725;42.758;26.702;2022-07-17T07:20:14;99466.00;;;29.00
68743;BMP180;55725;42.758;26.702;2022-07-17T07:21:55;99460.00;;;29.00
68743;BMP180;55725;42.758;26.702;2022-07-17T07:23:35;99471.00;;;29.10
68743;BMP180;55725;42.758;26.702;2022-07-17T07:25:15;99473.00;;;28.90
68743;BMP180;55725;42.758;26.702;2022-07-17T07:26:56;99471.00;;;29.20
68743;BMP180;55725;42.758;26.702;2022-07-17T07:28:36;99469.00;;;29.40
68743;BMP180;55725;42.758;26.702;2022-07-17T07:30:18;99471.00;;;29.20
68743;BMP180;55725;42.758;26.702;2022-07-17T07:31:58;99468.00;;;29.80
68743;BMP180;55725;42.758;26.702;2022-07-17T07:33:38;99468.00;;;29.70
68743;BMP180;55725;42.758;26.702;2022-07-17T07:35:19;99469.00;;;29.70
68743;BMP180;55725;42.758;26.702;2022-07-17T07:36:59;99476.00;;;29.60
68743;BMP180;55725;42.758;26.702;2022-07-17T07:38:40;99472.00;;;29.70
68743;BMP180;55725;42.758;26.702;2022-07-17T07:40:20;99465.00;;;29.70
68743;BMP180;55725;42.758;26.702;2022-07-17T07:42:00;99468.00;;;29.50
68743;BMP180;55725;42.758;26.702;2022-07-17T07:43:41;99468.00;;;29.90
68743;BMP180;55725;42.758;26.702;2022-07-17T07:45:21;99479.00;;;29.90
68743;BMP180;55725;42.758;26.702;2022-07-17T07:47:02;99480.00;;;29.60
68743;BMP180;55725;42.758;26.702;2022-07-17T07:48:42;99469.00;;;29.50
68743;BMP180;55725;42.758;26.702;2022-07-17T07:50:23;99475.00;;;29.90
68743;BMP180;55725;42.758;26.702;2022-07-17T07:52:04;99480.00;;;29.90
68743;BMP180;55725;42.758;26.702;2022-07-17T07:53:44;99472.00;;;30.20
68743;BMP180;55725;42.758;26.702;2022-07-17T07:55:24;99486.00;;;30.40
68743;BMP180;55725;42.758;26.702;2022-07-17T07:57:05;99490.00;;;30.40
68743;BMP180;55725;42.758;26.702;2022-07-17T07:58:45;99491.00;;;30.20
68743;BMP180;55725;42.758;26.702;2022-07-17T08:00:26;99485.00;;;30.30
68743;BMP180;55725;42.758;26.702;2022-07-17T08:02:06;99483.00;;;30.30
68743;BMP180;55725;42.758;26.702;2022-07-17T08:03:46;99491.00;;;30.00
68743;BMP180;55725;42.758;26.702;2022-07-17T08:05:27;99495.00;;;29.90
68743;BMP180;55725;42.758;26.702;2022-07-17T08:07:07;99498.00;;;30.00
68743;BMP180;55725;42.758;26.702;2022-07-17T08:08:48;99501.00;;;30.00
68743;BMP180;55725;42.758;26.702;2022-07-17T08:10:28;99497.00;;;29.70
68743;BMP180;55725;42.758;26.702;2022-07-17T08:12:08;99509.00;;;30.30
68743;BMP180;55725;42.758;26.702;2022-07-17T08:13:49;99502.00;;;30.20
68743;BMP180;55725;42.758;26.702;2022-07-17T08:15:29;99502.00;;;30.00
68743;BMP180;55725;42.758;26.702;2022-07-17T08:17:10;99510.00;;;30.20
68743;BMP180;55725;42.758;26.702;2022-07-17T08:18:50;99509.00;;;29.90
68743;BMP180;55725;42.758;26.702;2022-07-17T08:20:30;99508.00;;;30.30
68743;BMP180;55725;42.758;26.702;2022-07-17T08:22:11;99504.00;;;30.50
68743;BMP180;55725;42.758;26.702;2022-07-17T08:23:52;99513.00;;;30.50
68743;BMP180;55725;42.758;26.702;2022-07-17T08:25:33;99514.00;;;30.40
68743;BMP180;55725;42.758;26.702;2022-07-17T08:27:13;99520.00;;;30.60
68743;BMP180;55725;42.758;26.702;2022-07-17T08:28:54;99519.00;;;30.40
68743;BMP180;55725;42.758;26.702;2022-07-17T08:30:34;99519.00;;;30.50
68743;BMP180;55725;42.758;26.702;2022-07-17T08:32:15;99507.00;;;30.70
68743;BMP180;55725;42.758;26.702;2022-07-17T08:33:55;99518.00;;;30.60
68743;BMP180;55725;42.758;26.702;2022-07-17T08:35:36;99516.00;;;30.20
68743;BMP180;55725;42.758;26.702;2022-07-17T08:37:16;99523.00;;;30.60
68743;BMP180;55725;42.758;26.702;2022-07-17T08:38:56;99513.00;;;30.10
68743;BMP180;55725;42.758;26.702;2022-07-17T08:40:37;99516.00;;;30.90
68743;BMP180;55725;42.758;26.702;2022-07-17T08:42:19;99507.00;;;31.00
68743;BMP180;55725;42.758;26.702;2022-07-17T08:43:59;99511.00;;;31.20
68743;BMP180;55725;42.758;26.702;2022-07-17T08:45:39;99508.00;;;30.60
68743;BMP180;55725;42.758;26.702;2022-07-17T08:47:20;99512.00;;;30.90
68743;BMP180;55725;42.758;26.702;2022-07-17T08:49:01;99509.00;;;31.40
68743;BMP180;55725;42.758;26.702;2022-07-17T08:50:42;99501.00;;;30.90
68743;BMP180;55725;42.758;26.702;2022-07-17T08:52:22;99497.00;;;31.50
68743;BMP180;55725;42.758;26.702;2022-07-17T08:54:03;99499.00;;;31.20
68743;BMP180;55725;42.758;26.702;2022-07-17T08:55:43;99508.00;;;30.90
68743;BMP180;55725;42.758;26.702;2022-07-17T08:57:24;99505.00;;;31.50
68743;BMP180;55725;42.758;26.702;2022-07-17T08:59:04;99503.00;;;31.70
68743;BMP180;55725;42.758;26.702;2022-07-17T09:00:45;99500.00;;;31.50
68743;BMP180;55725;42.758;26.702;2022-07-17T09:02:25;99503.00;;;32.10
68743;BMP180;55725;42.758;26.702;2022-07-17T09:04:06;99508.00;;;31.60
68743;BMP180;55725;42.758;26.702;2022-07-17T09:05:46;99496.00;;;31.50
68743;BMP180;55725;42.758;26.702;2022-07-17T09:07:26;99509.00;;;31.90
68743;BMP180;55725;42.758;26.702;2022-07-17T09:09:08;99505.00;;;31.60
68743;BMP180;55725;42.758;26.702;2022-07-17T09:10:52;99508.00;;;31.50
68743;BMP180;55725;42.758;26.702;2022-07-17T09:12:33;99518.00;;;31.80
68743;BMP180;55725;42.758;26.702;2022-07-17T09:14:14;99521.00;;;31.80
68743;BMP180;55725;42.758;26.702;2022-07-17T09:15:58;99514.00;;;31.80
68743;BMP180;55725;42.758;26.702;2022-07-17T09:17:46;99509.00;;;31.80
68743;BMP180;55725;42.758;26.702;2022-07-17T09:19:36;99508.00;;;31.20
68743;BMP180;55725;42.758;26.702;2022-07-17T09:21:18;99512.00;;;31.50
68743;BMP180;55725;42.758;26.702;2022-07-17T09:22:59;99508.00;;;31.60
68743;BMP180;55725;42.758;26.702;2022-07-17T09:24:50;99509.00;;;31.90
68743;BMP180;55725;42.758;26.702;2022-07-17T09:26:30;99505.00;;;32.20
68743;BMP180;55725;42.758;26.702;2022-07-17T09:28:13;99504.00;;;31.70
68743;BMP180;55725;42.758;26.702;2022-07-17T09:31:34;99507.00;;;31.70
68743;BMP180;55725;42.758;26.702;2022-07-17T09:33:18;99520.00;;;32.00